Flight Track Log - Related Links

Times and Time Zones

All times are in EDT time to prevent confusion due to time zone crossing. See the UPS1122 flight status page for this flight to view local times or setup timezone preferences in your user account.

Time Position Orientation Groundspeed Altitude Reporting Facility
EDT Latitude Longitude Course Direction KTS MPH feet Rate Location/Type
Sat 04:43:43 AM 38.1830 -85.7300 90° East 86 99  Level FlightAware ADS-B
Sat 04:44:08 AM 38.1680 -85.7250 165° South 169 194 700 2,108 Climbing FlightAware ADS-B
Sat 04:44:20 AM 38.1570 -85.7210 164° South 175 201 1,300 2,294 Climbing FlightAware ADS-B
Sat 04:44:42 AM 38.1390 -85.7160 168° South 197 227 2,000 1,773 Climbing FlightAware ADS-B
Sat 04:45:04 AM 38.1180 -85.7090 165° South 222 255 2,600 1,588 Climbing FlightAware ADS-B
Sat 04:45:16 AM 38.1060 -85.7050 165° South 230 265 2,900 2,229 Climbing FlightAware ADS-B
Sat 04:45:39 AM 38.0820 -85.6970 165° South 241 277 3,900 2,318 Climbing FlightAware ADS-B
Sat 04:46:00 AM 38.0590 -85.6880 163° South 257 296 4,600 2,069 Climbing FlightAware ADS-B
Sat 04:46:08 AM 38.0510 -85.6820 149° Southeast 265 305 4,900 2,500 Climbing FlightAware ADS-B
Sat 04:46:12 AM 38.0470 -85.6760 130° Southeast 269 310 5,100 2,000 Climbing FlightAware ADS-B
Sat 04:46:20 AM 38.0420 -85.6660 122° Southeast 274 315 5,300 2,250 Climbing FlightAware ADS-B
Sat 04:46:28 AM 38.0390 -85.6540 108° East 275 316 5,700 3,000 Climbing FlightAware ADS-B
Sat 04:46:34 AM 38.0390 -85.6440 90° East 275 316 6,000 2,500 Climbing FlightAware ADS-B
Sat 04:47:04 AM 38.0560 -85.6040 62° Northeast 271 312 7,200 2,520 Climbing FlightAware ADS-B
Sat 04:47:24 AM 38.0730 -85.5790 49° Northeast 279 321 8,100 2,625 Climbing FlightAware ADS-B
Sat 04:47:52 AM 38.0880 -85.5400 64° Northeast 278 320 9,300 2,276 Climbing FlightAware ADS-B
Sat 04:48:22 AM 38.1060 -85.4970 62° Northeast 292 336 10,300 1,457 Climbing FlightAware ADS-B
Sat 04:49:02 AM 38.1320 -85.4320 63° Northeast 330 380 11,000 1,200 Climbing FlightAware ADS-B
Sat 04:49:32 AM 38.1530 -85.3730 66° East 353 406 11,700 1,385 Climbing FlightAware ADS-B
Sat 04:50:07 AM 38.1790 -85.3030 65° Northeast 380 437 12,500 1,600 Climbing FlightAware ADS-B
Sat 04:50:47 AM 38.2090 -85.2180 66° East 395 455 13,700 1,800 Climbing FlightAware ADS-B
Sat 04:51:17 AM 38.2320 -85.1570 64° Northeast 402 463 14,600 1,662 Climbing FlightAware ADS-B
Sat 04:51:52 AM 38.2590 -85.0850 64° Northeast 411 473 15,500 1,714 Climbing FlightAware ADS-B
Sat 04:52:27 AM 38.2900 -85.0030 64° Northeast 423 487 16,600 2,100 Climbing FlightAware ADS-B
Sat 04:53:12 AM 38.3270 -84.9010 65° Northeast 431 496 18,300 2,250 Climbing FlightAware ADS-B
Sat 04:53:47 AM 38.3590 -84.8140 65° Northeast 442 509 19,600 2,083 Climbing FlightAware ADS-B
Sat 04:54:24 AM 38.3920 -84.7220 65° Northeast 450 518 20,800 1,859 Climbing FlightAware ADS-B
Sat 04:54:58 AM 38.4220 -84.6390 65° Northeast 458 527 21,800 1,886 Climbing FlightAware ADS-B
Sat 04:55:34 AM 38.4550 -84.5490 65° Northeast 463 533 23,000 1,765 Climbing FlightAware ADS-B
Sat 04:56:06 AM 38.4840 -84.4680 65° Northeast 471 542 23,800 1,457 Climbing FlightAware ADS-B
Sat 04:56:44 AM 38.5190 -84.3720 65° Northeast 479 551 24,700 1,417 Climbing FlightAware ADS-B
Sat 04:57:18 AM 38.5500 -84.2830 66° East 486 559 25,500 1,371 Climbing FlightAware ADS-B
Sat 04:57:54 AM 38.5850 -84.1870 65° Northeast 493 567 26,300 1,324 Climbing FlightAware ADS-B
Sat 04:58:26 AM 38.6150 -84.1030 65° Northeast 497 572 27,000 1,412 Climbing FlightAware ADS-B
Sat 04:59:02 AM 38.6510 -84.0030 65° Northeast 502 578 27,900 1,250 Climbing FlightAware ADS-B
Sat 04:59:38 AM 38.6860 -83.9040 66° East 511 588 28,500 1,000 Climbing FlightAware ADS-B
Sat 05:00:14 AM 38.7220 -83.8040 65° Northeast 519 597 29,100 727 Climbing FlightAware ADS-B
Sat 05:00:44 AM 38.7500 -83.7250 66° East 529 609 29,300 529 Climbing FlightAware ADS-B
Sat 05:01:22 AM 38.7920 -83.6070 65° Northeast 541 623 29,700 868 Climbing FlightAware ADS-B
Sat 05:02:00 AM 38.8310 -83.4960 66° East 543 625 30,400 1,216 Climbing FlightAware ADS-B
Sat 05:02:36 AM 38.8680 -83.3910 66° East 541 623 31,200 1,324 Climbing FlightAware ADS-B
Sat 05:03:08 AM 38.9010 -83.2950 66° East 539 620 31,900 1,147 Climbing FlightAware ADS-B
Sat 05:03:44 AM 38.9380 -83.1910 65° Northeast 539 620 32,500 1,083 Climbing FlightAware ADS-B
Sat 05:04:20 AM 38.9750 -83.0850 66° East 538 619 33,200 1,167 Climbing FlightAware ADS-B
Sat 05:04:56 AM 39.0110 -82.9800 66° East 538 619 33,900 1,147 Climbing FlightAware ADS-B
Sat 05:05:28 AM 39.0440 -82.8850 66° East 537 618 34,500 1,147 Climbing FlightAware ADS-B
Sat 05:06:04 AM 39.0800 -82.7790 66° East 534 615 35,200 1,167 Climbing FlightAware ADS-B
Sat 05:06:40 AM 39.1160 -82.6750 66° East 532 612 35,900 1,083 Climbing FlightAware ADS-B
Sat 05:07:16 AM 39.1510 -82.5700 67° East 531 611 36,500 882 Climbing FlightAware ADS-B
Sat 05:07:48 AM 39.1810 -82.4820 66° East 529 609 36,900 441 Climbing FlightAware ADS-B
Sat 05:08:24 AM 39.2190 -82.3700 66° East 527 606 37,000 83 Climbing FlightAware ADS-B
Sat 05:09:00 AM 39.2530 -82.2690 66° East 527 606 37,000  Level FlightAware ADS-B
Sat 05:09:34 AM 39.2860 -82.1700 67° East 527 606 37,000  Level FlightAware ADS-B
Sat 05:10:10 AM 39.3210 -82.0650 67° East 528 608 37,000  Level FlightAware ADS-B
Sat 05:10:42 AM 39.3520 -81.9710 67° East 529 609 37,000  Level FlightAware ADS-B
Sat 05:11:16 AM 39.3840 -81.8740 67° East 528 608 37,000  Level FlightAware ADS-B
Sat 05:11:52 AM 39.4200 -81.7670 66° East 530 610 37,000  Level FlightAware ADS-B
Sat 05:12:30 AM 39.4560 -81.6550 67° East 531 611 37,000  Level FlightAware ADS-B
Sat 05:13:03 AM 39.4870 -81.5610 67° East 531 611 37,000  Level FlightAware ADS-B
Sat 05:13:38 AM 39.5210 -81.4570 67° East 531 611 37,000  Level FlightAware ADS-B
Sat 05:14:12 AM 39.5540 -81.3560 67° East 531 611 37,000  Level FlightAware ADS-B
Sat 05:14:49 AM 39.5890 -81.2470 67° East 531 611 37,000  Level FlightAware ADS-B
Sat 05:15:22 AM 39.6200 -81.1510 67° East 530 610 37,000  Level FlightAware ADS-B
Sat 05:15:58 AM 39.6550 -81.0420 67° East 530 610 37,000  Level FlightAware ADS-B
Sat 05:16:35 AM 39.6890 -80.9360 67° East 531 611 37,000  Level FlightAware ADS-B
Sat 05:17:11 AM 39.7240 -80.8280 67° East 531 611 37,000  Level FlightAware ADS-B
Sat 05:17:43 AM 39.7540 -80.7330 68° East 532 612 37,000  Level FlightAware ADS-B
Sat 05:18:19 AM 39.7880 -80.6270 67° East 531 611 37,000  Level FlightAware ADS-B
Sat 05:18:54 AM 39.8210 -80.5220 68° East 532 612 37,000  Level FlightAware ADS-B
Sat 05:19:31 AM 39.8540 -80.4160 68° East 533 613 37,000  Level FlightAware ADS-B
Sat 05:20:01 AM 39.8830 -80.3250 67° East 533 613 37,000  Level FlightAware ADS-B
Sat 05:20:37 AM 39.9170 -80.2170 68° East 532 612 37,000  Level FlightAware ADS-B
Sat 05:21:10 AM 39.9460 -80.1220 68° East 532 612 37,000  Level FlightAware ADS-B
Sat 05:21:47 AM 39.9820 -80.0070 68° East 532 612 37,000  Level FlightAware ADS-B
Sat 05:22:21 AM 40.0140 -79.9040 68° East 532 612 37,000  Level FlightAware ADS-B
Sat 05:23:00 AM 40.0500 -79.7870 68° East 532 612 37,000  Level FlightAware ADS-B
Sat 05:23:36 AM 40.0820 -79.6800 69° East 531 611 37,000  Level FlightAware ADS-B
Sat 05:24:08 AM 40.1120 -79.5820 68° East 532 612 37,000  Level FlightAware ADS-B
Sat 05:24:44 AM 40.1430 -79.4770 69° East 532 612 37,000  Level FlightAware ADS-B
Sat 05:25:20 AM 40.1760 -79.3670 69° East 533 613 37,000  Level FlightAware ADS-B
Sat 05:25:53 AM 40.2060 -79.2700 68° East 533 613 37,000  Level FlightAware ADS-B
Sat 05:26:29 AM 40.2380 -79.1600 69° East 533 613 37,000  Level FlightAware ADS-B
Sat 05:27:05 AM 40.2710 -79.0510 68° East 533 613 37,000  Level FlightAware ADS-B
Sat 05:27:41 AM 40.3040 -78.9410 68° East 534 615 37,000  Level FlightAware ADS-B
Sat 05:28:13 AM 40.3320 -78.8440 69° East 535 616 37,000  Level FlightAware ADS-B
Sat 05:28:49 AM 40.3640 -78.7350 69° East 535 616 37,000  Level FlightAware ADS-B
Sat 05:29:26 AM 40.3970 -78.6250 68° East 535 616 37,000  Level FlightAware ADS-B
Sat 05:30:01 AM 40.4280 -78.5170 69° East 535 616 37,000  Level FlightAware ADS-B
Sat 05:30:33 AM 40.4570 -78.4180 69° East 535 616 37,000  Level FlightAware ADS-B
Sat 05:31:09 AM 40.4890 -78.3080 69° East 537 618 37,000  Level FlightAware ADS-B
Sat 05:31:58 AM 40.5320 -78.1620 69° East 536 617 37,000  Level FlightAware ADS-B
Sat 05:32:26 AM 40.5574 -78.0730 69° East 37,000  Level FlightAware ADS-B
Sat 05:32:51 AM 40.5794 -77.9964 69° East 537 618 37,000  Level FlightAware ADS-B
Sat 05:33:21 AM 40.6059 -77.9045 69° East 537 618 37,000  Level FlightAware ADS-B
Sat 05:33:52 AM 40.6336 -77.8088 69° East 537 618 37,000  Level FlightAware ADS-B
Sat 05:34:23 AM 40.6615 -77.7123 69° East 538 619 37,000  Level FlightAware ADS-B
Sat 05:34:54 AM 40.6883 -77.6187 69° East 539 620 37,000  Level FlightAware ADS-B
Sat 05:35:24 AM 40.7155 -77.5237 69° East 540 621 37,000  Level FlightAware ADS-B
Sat 05:35:55 AM 40.7420 -77.4310 69° East 540 621 37,000  Level FlightAware ADS-B
Sat 05:36:25 AM 40.7686 -77.3372 69° East 538 619 37,000  Level FlightAware ADS-B
Sat 05:36:56 AM 40.7953 -77.2428 69° East 539 620 37,000  Level FlightAware ADS-B
Sat 05:37:27 AM 40.8227 -77.1457 70° East 539 620 37,000  Level FlightAware ADS-B
Sat 05:37:58 AM 40.8498 -77.0494 70° East 538 619 37,000  Level FlightAware ADS-B
Sat 05:38:28 AM 40.8758 -76.9565 70° East 539 620 37,000  Level FlightAware ADS-B
Sat 05:38:59 AM 40.9027 -76.8599 70° East 540 621 37,000  Level FlightAware ADS-B
Sat 05:39:30 AM 40.9289 -76.7653 70° East 542 624 37,000  Level FlightAware ADS-B
Sat 05:40:00 AM 40.9548 -76.6718 70° East 542 624 37,000  Level FlightAware ADS-B
Sat 05:40:30 AM 40.9808 -76.5785 70° East 540 621 37,000  Level FlightAware ADS-B
Sat 05:41:00 AM 41.0067 -76.4854 70° East 539 620 37,000  Level FlightAware ADS-B
Sat 05:41:30 AM 41.0326 -76.3906 70° East 541 623 37,000  Level FlightAware ADS-B
Sat 05:42:00 AM 41.0576 -76.2966 71° East 541 623 37,000  Level FlightAware ADS-B
Sat 05:42:31 AM 41.0831 -76.1993 71° East 541 623 37,000  Level FlightAware ADS-B
Sat 05:43:01 AM 41.1076 -76.1050 71° East 542 624 37,000  Level FlightAware ADS-B
Sat 05:43:32 AM 41.1324 -76.0094 71° East 542 624 37,000  Level FlightAware ADS-B
Sat 05:44:02 AM 41.1573 -75.9136 71° East 543 625 37,000  Level FlightAware ADS-B
Sat 05:44:32 AM 41.1821 -75.8182 71° East 543 625 37,000  Level FlightAware ADS-B
Sat 05:45:02 AM 41.2067 -75.7233 71° East 544 626 37,000  Level FlightAware ADS-B
Sat 05:45:32 AM 41.2315 -75.6277 71° East 543 625 37,000 -590 Level FlightAware ADS-B
Sat 05:46:03 AM 41.2563 -75.5316 71° East 551 634 36,400 -1,574 Descending FlightAware ADS-B
Sat 05:46:33 AM 41.2816 -75.4333 71° East 558 642 35,400 -2,000 Descending FlightAware ADS-B
Sat 05:47:03 AM 41.3070 -75.3344 71° East 563 648 34,400 -2,000 Descending FlightAware ADS-B
Sat 05:47:33 AM 41.3324 -75.2352 71° East 563 648 33,400 -1,869 Descending FlightAware ADS-B
Sat 05:48:04 AM 41.3578 -75.1360 71° East 563 648 32,500 -1,869 Descending FlightAware ADS-B
Sat 05:48:34 AM 41.3833 -75.0359 71° East 557 641 31,500 -2,000 Descending FlightAware ADS-B
Sat 05:49:04 AM 41.4081 -74.9382 71° East 549 632 30,500 -2,032 Descending FlightAware ADS-B
Sat 05:49:36 AM 41.4332 -74.8389 71° East 540 621 29,400 -2,000 Descending FlightAware ADS-B
Sat 05:50:07 AM 41.4576 -74.7415 71° East 533 613 28,400 -1,967 Descending FlightAware ADS-B
Sat 05:50:37 AM 41.4812 -74.6470 72° East 527 606 27,400 -1,400 Descending FlightAware ADS-B
Sat 05:51:07 AM 41.5041 -74.5548 72° East 522 601 27,000 -1,082 Descending FlightAware ADS-B
Sat 05:51:38 AM 41.5282 -74.4577 72° East 530 610 26,300 -1,645 Descending FlightAware ADS-B
Sat 05:52:09 AM 41.5518 -74.3622 72° East 522 601 25,300 -1,935 Descending FlightAware ADS-B
Sat 05:52:40 AM 41.5746 -74.2700 72° East 510 587 24,300 -1,967 Descending FlightAware ADS-B
Sat 05:53:10 AM 41.5969 -74.1795 72° East 496 571 23,300 -1,969 Descending FlightAware ADS-B
Sat 05:53:44 AM 41.6213 -74.0802 72° East 484 557 22,200 -1,969 Descending FlightAware ADS-B
Sat 05:54:14 AM 41.6410 -73.9980 72° East 474 545 21,200 -2,043 Descending FlightAware ADS-B
Sat 05:54:31 AM 41.6531 -73.9497 71° East 474 545 20,600 -2,043 Descending FlightAware ADS-B
Sat 05:55:01 AM 41.6730 -73.8673 72° East 456 525 19,600 -2,000 Descending FlightAware ADS-B
Sat 05:55:31 AM 41.6920 -73.7880 72° East 445 512 18,600 -2,000 Descending FlightAware ADS-B
Sat 05:56:07 AM 41.7140 -73.6940 73° East 435 501 17,400 -1,917 Descending FlightAware ADS-B
Sat 05:56:43 AM 41.7360 -73.6030 72° East 427 491 16,300 -1,941 Descending FlightAware ADS-B
Sat 05:57:15 AM 41.7550 -73.5250 72° East 420 483 15,200 -1,367 Descending FlightAware ADS-B
Sat 05:58:02 AM 41.7800 -73.4180 73° East 414 476 14,500 -506 Descending FlightAware ADS-B
Sat 05:58:38 AM 41.7980 -73.3430 72° East 414 476 14,500  Level FlightAware ADS-B
Sat 05:59:14 AM 41.8160 -73.2690 72° East 414 476 14,500 -2,414 Level FlightAware ADS-B
Sat 06:00:05 AM 41.8530 -73.1240 71° East 343 395 11,000 -2,283 Descending FlightAware ADS-B
Sat 06:00:46 AM 41.8860 -73.0650 53° Northeast 339 390 11,000  Level FlightAware ADS-B
Sat 06:01:22 AM 41.9150 -73.0140 53° Northeast 339 390 11,000  Level FlightAware ADS-B
Sat 06:01:58 AM 41.9440 -72.9620 53° Northeast 339 390 11,000 -2,638 Level FlightAware ADS-B
Sat 06:03:18 AM 42.0161 -72.8536 53° Northeast 304 350 5,900 -2,957 Descending Boston Center
Sat 06:04:16 AM 42.0664 -72.7728 50° Northeast 291 335 4,200 -1,373 Descending Boston Center
Sat 06:05:16 AM 42.1106 -72.6892 55° Northeast 260 299 3,200 -700 Descending Boston Center
Sat 06:06:16 AM 42.1211 -72.6164 79° East 208 239 2,800 -341 Descending Boston Center
Sat 06:07:19 AM 42.0711 -72.5603 140° Southeast 220 253 2,500 -293 Descending Boston Center
Sat 06:08:19 AM 42.0231 -72.5797 197° South 170 196 2,200 -650 Descending Boston Center
Sat 06:09:19 AM 41.9856 -72.6244 222° Southwest 133 153 1,200 -780 Descending Boston Center
Sat 06:10:22 AM 41.9606 -72.6578 225° Southwest 121 139 600 -419 Descending Boston Center
Sat 06:11:28 AM 41.9333 -72.6969 227° Southwest 140 161 300 4,913 Descending Boston Center
Sat 06:12:29 AM 41.9061 -72.7303 222° Southwest 140 161 11,000 5,350 Climbing Boston Center
Sat 06:13:28 AM 41.8811 -72.7664 227° Southwest 140 161 11,000  Level Boston Center

Login

Don't have an account? Register now (free) for customized features, flight alerts, and more!